createdAt,value
2019-05-29T00:00:09.898Z,7.40
2019-05-29T00:02:38.772Z,7.30
2019-05-29T00:05:08.406Z,7.30
2019-05-29T00:07:37.139Z,7.20
2019-05-29T00:10:10.385Z,7.30
2019-05-29T00:12:39.226Z,7.40
2019-05-29T00:15:08.430Z,7.30
2019-05-29T00:17:36.964Z,7.30
2019-05-29T00:20:06.446Z,7.20
2019-05-29T00:22:35.248Z,7.30
2019-05-29T00:25:06.344Z,7.20
2019-05-29T00:27:35.017Z,7.20
2019-05-29T00:30:06.809Z,7.20
2019-05-29T00:32:35.870Z,7.20
2019-05-29T00:35:08.221Z,7.10
2019-05-29T00:37:36.959Z,7.10
2019-05-29T00:40:09.015Z,7.20
2019-05-29T00:42:37.762Z,7.20
2019-05-29T00:45:09.673Z,7.10
2019-05-29T00:47:38.450Z,7.00
2019-05-29T00:50:08.021Z,6.90
2019-05-29T00:52:37.010Z,6.90
2019-05-29T00:56:03.890Z,6.80
2019-05-29T00:58:32.450Z,6.80
2019-05-29T01:01:01.157Z,6.70
2019-05-29T01:03:29.860Z,6.80
2019-05-29T01:05:58.421Z,7.00
2019-05-29T01:08:27.130Z,7.00
2019-05-29T01:10:55.821Z,6.80
2019-05-29T01:13:24.477Z,6.70
2019-05-29T01:15:53.037Z,6.70
2019-05-29T01:18:22.373Z,6.70
2019-05-29T01:20:50.989Z,6.60
2019-05-29T01:23:20.359Z,6.50
2019-05-29T01:25:48.977Z,6.40
2019-05-29T01:28:17.562Z,6.50
2019-05-29T01:30:46.131Z,6.40
2019-05-29T01:33:18.559Z,6.30
2019-05-29T01:35:45.040Z,6.30
2019-05-29T01:38:14.949Z,6.30
2019-05-29T01:40:44.377Z,6.40
2019-05-29T01:43:12.985Z,6.40
2019-05-29T01:45:41.561Z,6.50
2019-05-29T01:48:10.137Z,6.60
2019-05-29T01:50:38.753Z,6.60
2019-05-29T01:53:07.324Z,6.50
2019-05-29T01:55:35.977Z,6.40
2019-05-29T01:58:04.896Z,6.30
2019-05-29T02:00:33.605Z,6.40
2019-05-29T02:03:02.260Z,6.40
2019-05-29T02:05:31.045Z,6.40
2019-05-29T02:07:59.753Z,6.40
2019-05-29T02:10:28.454Z,6.40
2019-05-29T02:12:57.146Z,6.40
2019-05-29T02:15:32.076Z,6.30
2019-05-29T02:17:56.070Z,6.30
2019-05-29T02:20:25.239Z,6.30
2019-05-29T02:22:54.044Z,6.10
2019-05-29T02:25:22.862Z,6.20
2019-05-29T02:27:51.435Z,6.20
2019-05-29T02:30:22.819Z,6.20
2019-05-29T02:32:50.794Z,6.20
2019-05-29T02:35:20.249Z,6.20
2019-05-29T02:37:49.454Z,6.10
2019-05-29T02:40:18.836Z,6.20
2019-05-29T02:42:48.157Z,6.10
2019-05-29T02:45:17.297Z,6.10
2019-05-29T02:47:46.036Z,6.20
2019-05-29T02:50:14.801Z,6.10
2019-05-29T02:52:43.610Z,6.10
2019-05-29T02:55:12.322Z,6.00
2019-05-29T02:57:40.990Z,6.00
2019-05-29T03:00:10.913Z,6.00
2019-05-29T03:02:39.550Z,6.00
2019-05-29T03:05:08.535Z,6.00
2019-05-29T03:07:37.163Z,5.90
2019-05-29T03:10:09.194Z,6.00
2019-05-29T03:12:39.350Z,6.00
2019-05-29T03:15:08.889Z,6.20
2019-05-29T03:17:37.529Z,6.20
2019-05-29T03:20:07.030Z,6.30
2019-05-29T03:22:35.627Z,6.20
2019-05-29T03:25:07.166Z,6.50
2019-05-29T03:27:35.880Z,6.40
2019-05-29T03:30:06.119Z,6.60
2019-05-29T03:32:45.675Z,6.90
2019-05-29T03:35:06.341Z,6.90
2019-05-29T03:37:35.073Z,7.00
2019-05-29T03:40:05.870Z,7.00
2019-05-29T03:42:34.561Z,7.00
2019-05-29T03:45:03.083Z,6.90
2019-05-29T03:47:33.263Z,6.80
2019-05-29T03:50:02.088Z,6.70
2019-05-29T03:52:32.520Z,6.60
2019-05-29T03:55:00.966Z,6.80
2019-05-29T03:57:29.868Z,7.00
2019-05-29T03:59:59.719Z,7.30
2019-05-29T04:02:28.769Z,7.50
2019-05-29T04:04:57.487Z,7.60
2019-05-29T04:07:26.856Z,7.50
2019-05-29T04:09:55.692Z,7.60
2019-05-29T04:12:24.910Z,7.60
2019-05-29T04:14:54.305Z,7.40
2019-05-29T04:17:25.146Z,7.50
2019-05-29T04:19:53.787Z,7.50
2019-05-29T04:22:25.449Z,7.60
2019-05-29T04:24:55.630Z,7.60
2019-05-29T04:27:27.933Z,7.60
2019-05-29T04:30:02.860Z,7.60
2019-05-29T04:32:32.238Z,7.70
2019-05-29T04:35:00.935Z,7.70
2019-05-29T04:37:30.316Z,7.70
2019-05-29T04:39:59.215Z,7.80
2019-05-29T04:42:29.059Z,7.80
2019-05-29T04:44:58.157Z,7.90
2019-05-29T04:47:26.721Z,8.00
2019-05-29T04:49:55.303Z,8.00
2019-05-29T04:52:24.164Z,8.10
2019-05-29T04:54:52.866Z,8.40
2019-05-29T04:57:21.504Z,8.50
2019-05-29T04:59:50.996Z,8.50
2019-05-29T05:02:19.775Z,8.80
2019-05-29T05:04:48.549Z,8.60
2019-05-29T05:07:17.254Z,8.90
2019-05-29T05:09:45.854Z,9.10
2019-05-29T05:12:14.738Z,9.30
2019-05-29T05:14:43.426Z,9.30
2019-05-29T05:17:25.309Z,9.20
2019-05-29T05:19:42.583Z,9.40
2019-05-29T05:22:11.254Z,9.50
2019-05-29T05:24:43.436Z,9.80
2019-05-29T05:27:10.314Z,10.00
2019-05-29T05:29:39.008Z,10.10
2019-05-29T05:32:07.770Z,10.10
2019-05-29T05:34:36.897Z,10.20
2019-05-29T05:37:05.594Z,10.40
2019-05-29T05:39:35.183Z,10.70
2019-05-29T05:42:03.929Z,10.80
2019-05-29T05:44:32.818Z,10.80
2019-05-29T05:47:01.649Z,11.10
2019-05-29T05:49:31.217Z,11.10
2019-05-29T05:52:00.298Z,11.20
2019-05-29T05:54:29.042Z,11.30
2019-05-29T05:56:57.773Z,11.80
2019-05-29T05:59:26.467Z,11.90
2019-05-29T06:01:55.215Z,11.80
2019-05-29T06:04:23.994Z,12.10
2019-05-29T06:06:52.563Z,12.30
2019-05-29T06:09:21.198Z,13.10
2019-05-29T06:11:49.792Z,13.70
2019-05-29T06:14:18.432Z,13.70
2019-05-29T06:16:47.027Z,14.20
2019-05-29T06:19:15.810Z,14.60
2019-05-29T06:21:44.356Z,14.40
2019-05-29T06:24:13.108Z,14.40
2019-05-29T06:26:41.710Z,14.90
2019-05-29T06:29:10.305Z,14.60
2019-05-29T06:31:39.396Z,14.90
2019-05-29T06:34:08.249Z,14.20
2019-05-29T06:36:37.936Z,14.20
2019-05-29T06:39:07.510Z,14.30
2019-05-29T06:41:36.200Z,13.70
2019-05-29T06:44:05.019Z,13.40
2019-05-29T06:46:34.363Z,12.80
2019-05-29T06:49:03.134Z,14.10
2019-05-29T06:51:31.871Z,14.30
2019-05-29T06:54:00.693Z,13.00
2019-05-29T06:56:29.689Z,12.80
2019-05-29T06:59:00.330Z,12.90
2019-05-29T07:01:29.205Z,12.80
2019-05-29T07:04:11.208Z,13.30
2019-05-29T07:06:28.461Z,14.00
2019-05-29T07:08:57.181Z,14.80
2019-05-29T07:11:25.881Z,16.30
2019-05-29T07:13:54.767Z,16.40
2019-05-29T07:16:23.515Z,16.90
2019-05-29T07:19:23.767Z,15.80
2019-05-29T07:21:22.791Z,14.30
2019-05-29T07:23:51.725Z,13.70
2019-05-29T07:26:20.471Z,14.20
2019-05-29T07:29:07.373Z,15.90
2019-05-29T07:31:19.835Z,14.60
2019-05-29T07:33:48.504Z,14.50
2019-05-29T07:36:17.632Z,15.40
2019-05-29T07:39:01.778Z,15.50
2019-05-29T07:41:16.793Z,16.30
2019-05-29T07:43:46.324Z,16.10
2019-05-29T07:46:15.058Z,16.60
2019-05-29T07:48:46.421Z,15.60
2019-05-29T07:51:14.256Z,15.60
2019-05-29T07:53:44.185Z,15.50
2019-05-29T07:56:22.268Z,15.40
2019-05-29T07:58:49.060Z,15.10
2019-05-29T08:01:14.174Z,14.30
2019-05-29T08:03:43.462Z,13.90
2019-05-29T08:06:12.673Z,13.60
2019-05-29T08:08:41.456Z,13.50
2019-05-29T08:11:10.185Z,13.40
2019-05-29T08:13:39.484Z,13.50
2019-05-29T08:16:08.178Z,14.60
2019-05-29T08:18:36.821Z,14.30
2019-05-29T08:21:05.562Z,15.30
2019-05-29T08:23:34.246Z,15.40
2019-05-29T08:26:03.040Z,15.90
2019-05-29T08:28:31.674Z,15.80
2019-05-29T08:31:00.436Z,16.40
2019-05-29T08:33:29.460Z,18.00
2019-05-29T08:36:00.299Z,19.90
2019-05-29T08:38:28.392Z,18.40
2019-05-29T08:40:57.246Z,16.60
2019-05-29T08:43:25.931Z,16.10
2019-05-29T08:45:54.840Z,15.60
2019-05-29T08:48:23.454Z,14.90
2019-05-29T08:50:52.440Z,14.90
2019-05-29T08:53:21.079Z,15.30
2019-05-29T08:55:50.748Z,16.80
2019-05-29T08:58:19.591Z,17.90
2019-05-29T09:00:51.886Z,18.20
2019-05-29T09:03:18.614Z,18.30
2019-05-29T09:06:04.278Z,17.20
2019-05-29T09:08:17.506Z,18.20
2019-05-29T09:10:47.206Z,18.70
2019-05-29T09:13:16.040Z,18.50
2019-05-29T09:15:44.637Z,18.10
2019-05-29T09:18:13.248Z,17.20
2019-05-29T09:21:00.930Z,16.80
2019-05-29T09:23:12.722Z,17.00
2019-05-29T09:25:41.516Z,17.50
2019-05-29T09:28:19.147Z,17.30
2019-05-29T09:30:48.208Z,18.00
2019-05-29T09:33:18.749Z,16.80
2019-05-29T09:35:47.270Z,16.80
2019-05-29T09:38:16.886Z,17.60
2019-05-29T09:40:45.656Z,19.90
2019-05-29T09:43:15.042Z,21.80
2019-05-29T09:45:44.616Z,21.90
2019-05-29T09:48:13.337Z,20.60
2019-05-29T09:50:50.086Z,18.10
2019-05-29T09:53:12.430Z,17.00
2019-05-29T09:55:42.405Z,15.80
2019-05-29T09:58:11.028Z,18.60
2019-05-29T10:00:39.781Z,19.80
2019-05-29T10:03:08.475Z,21.00
2019-05-29T10:05:37.148Z,20.00
2019-05-29T10:08:05.896Z,20.60
2019-05-29T10:10:34.599Z,20.80
2019-05-29T10:13:04.530Z,20.90
2019-05-29T10:15:33.378Z,20.60
2019-05-29T10:18:03.087Z,20.80
2019-05-29T10:20:32.474Z,21.10
2019-05-29T10:23:01.116Z,19.50
2019-05-29T10:25:29.847Z,18.00
2019-05-29T10:27:58.502Z,18.40
2019-05-29T10:30:27.573Z,18.00
2019-05-29T10:32:56.187Z,16.40
2019-05-29T10:35:24.802Z,16.40
2019-05-29T10:37:53.519Z,18.00
2019-05-29T10:40:22.268Z,17.40
2019-05-29T10:42:51.626Z,18.30
2019-05-29T10:45:20.453Z,17.90
2019-05-29T10:47:49.776Z,19.60
2019-05-29T10:50:19.222Z,17.80
2019-05-29T10:52:49.754Z,19.10
2019-05-29T10:55:21.687Z,20.30
2019-05-29T10:57:50.801Z,21.30
2019-05-29T11:00:19.942Z,21.80
2019-05-29T11:02:50.134Z,19.70
2019-05-29T11:05:19.491Z,20.00
2019-05-29T11:07:48.235Z,21.30
2019-05-29T11:10:17.203Z,20.10
2019-05-29T11:12:46.450Z,21.60
2019-05-29T11:15:21.430Z,21.20
2019-05-29T11:17:47.075Z,22.90
2019-05-29T11:20:17.673Z,22.40
2019-05-29T11:22:47.471Z,22.10
2019-05-29T11:25:23.385Z,21.80
2019-05-29T11:27:46.790Z,20.10
2019-05-29T11:30:16.260Z,20.70
2019-05-29T11:32:47.531Z,22.40
2019-05-29T11:35:15.458Z,22.00
2019-05-29T11:37:44.159Z,23.90
2019-05-29T11:40:13.208Z,23.80
2019-05-29T11:42:41.841Z,24.40
2019-05-29T11:45:12.711Z,24.00
2019-05-29T11:47:41.480Z,23.60
2019-05-29T11:50:19.274Z,23.50
2019-05-29T11:52:43.441Z,21.50
2019-05-29T11:55:12.884Z,22.90
2019-05-29T11:57:41.520Z,24.00
2019-05-29T12:00:20.313Z,22.90
2019-05-29T12:02:45.884Z,21.20
2019-05-29T12:05:14.991Z,20.90
2019-05-29T12:07:43.657Z,21.00
2019-05-29T12:10:12.816Z,22.60
2019-05-29T12:12:41.534Z,23.60
2019-05-29T12:15:15.771Z,24.10
2019-05-29T12:17:41.894Z,26.00
2019-05-29T12:20:27.199Z,22.90
2019-05-29T12:23:07.006Z,21.50
2019-05-29T12:25:12.568Z,22.90
2019-05-29T12:27:41.323Z,23.00
2019-05-29T12:30:11.813Z,22.20
2019-05-29T12:32:40.525Z,23.00
2019-05-29T12:35:09.789Z,23.30
2019-05-29T12:37:38.489Z,23.30
2019-05-29T12:40:08.439Z,23.00
2019-05-29T12:42:37.310Z,23.50
2019-05-29T12:45:10.168Z,24.60
2019-05-29T12:47:39.071Z,23.50
2019-05-29T12:50:09.992Z,22.20
2019-05-29T12:52:38.837Z,23.00
2019-05-29T12:55:09.416Z,24.10
2019-05-29T12:57:38.357Z,23.50
2019-05-29T13:00:10.141Z,23.00
2019-05-29T13:02:38.922Z,24.40
2019-05-29T13:05:19.227Z,23.90
2019-05-29T13:07:38.657Z,24.80
2019-05-29T13:10:08.882Z,26.70
2019-05-29T13:12:38.701Z,25.20
2019-05-29T13:15:09.649Z,24.00
2019-05-29T13:17:38.266Z,24.20
2019-05-29T13:20:21.183Z,23.30
2019-05-29T13:22:41.110Z,22.60
2019-05-29T13:25:12.293Z,22.50
2019-05-29T13:27:41.147Z,21.80
2019-05-29T13:30:12.164Z,22.20
2019-05-29T13:32:40.975Z,24.10
2019-05-29T13:35:10.090Z,23.50
2019-05-29T13:37:38.776Z,25.90
2019-05-29T13:40:08.606Z,23.30
2019-05-29T13:42:37.542Z,22.00
2019-05-29T13:45:16.594Z,22.30
2019-05-29T13:47:37.542Z,23.20
2019-05-29T13:50:12.656Z,23.70
2019-05-29T13:52:40.819Z,25.20
2019-05-29T13:55:10.294Z,24.40
2019-05-29T13:57:39.948Z,22.00
2019-05-29T14:00:32.476Z,20.60
2019-05-29T14:02:55.998Z,20.80
2019-05-29T14:05:24.808Z,21.90
2019-05-29T14:07:53.408Z,22.90
2019-05-29T14:10:22.229Z,22.60
2019-05-29T14:12:50.981Z,23.10
2019-05-29T14:15:19.754Z,22.80
2019-05-29T14:17:48.438Z,21.70
2019-05-29T14:20:17.510Z,20.60
2019-05-29T14:22:46.328Z,20.80
2019-05-29T14:25:15.929Z,23.60
2019-05-29T14:27:44.621Z,23.00
2019-05-29T14:30:14.488Z,22.60
2019-05-29T14:32:43.127Z,22.00
2019-05-29T14:35:13.354Z,20.70
2019-05-29T14:37:42.214Z,20.20
2019-05-29T14:40:12.085Z,20.80
2019-05-29T14:42:41.439Z,20.50
2019-05-29T14:45:11.046Z,20.10
2019-05-29T14:47:41.067Z,20.10
2019-05-29T14:50:11.678Z,20.60
2019-05-29T14:52:41.650Z,22.60
2019-05-29T14:55:16.276Z,22.20
2019-05-29T14:57:40.648Z,21.80
2019-05-29T15:00:20.967Z,22.60
2019-05-29T15:02:42.211Z,21.80
2019-05-29T15:05:12.209Z,22.90
2019-05-29T15:07:41.247Z,22.90
2019-05-29T15:10:24.091Z,21.80
2019-05-29T15:12:41.516Z,20.80
2019-05-29T15:15:11.888Z,22.90
2019-05-29T15:17:41.257Z,22.60
2019-05-29T15:20:12.291Z,21.40
2019-05-29T15:22:40.737Z,20.70
2019-05-29T15:25:24.680Z,22.50
2019-05-29T15:27:53.328Z,24.50
2019-05-29T15:30:23.548Z,23.80
2019-05-29T15:32:52.848Z,25.70
2019-05-29T15:35:21.513Z,25.00
2019-05-29T15:37:50.184Z,25.00
2019-05-29T15:40:19.785Z,24.30
2019-05-29T15:42:48.465Z,25.30
2019-05-29T15:45:19.918Z,23.80
2019-05-29T15:47:48.704Z,22.30
2019-05-29T15:50:19.267Z,21.70
2019-05-29T15:52:48.095Z,21.00
2019-05-29T15:55:28.268Z,20.30
2019-05-29T15:57:47.432Z,21.90
2019-05-29T16:00:17.733Z,22.40
2019-05-29T16:02:48.875Z,22.50
2019-05-29T16:05:17.462Z,22.70
2019-05-29T16:07:46.179Z,23.00
2019-05-29T16:10:18.537Z,23.00
2019-05-29T16:12:45.682Z,23.50
2019-05-29T16:15:17.462Z,23.20
2019-05-29T16:17:46.339Z,22.10
2019-05-29T16:20:16.327Z,21.70
2019-05-29T16:22:45.108Z,22.40
2019-05-29T16:25:17.007Z,22.30
2019-05-29T16:27:45.837Z,21.80
2019-05-29T16:30:15.554Z,22.00
2019-05-29T16:32:44.606Z,21.60
2019-05-29T16:35:15.092Z,21.70
2019-05-29T16:37:43.701Z,21.10
2019-05-29T16:40:16.111Z,21.50
2019-05-29T16:42:45.294Z,21.00
2019-05-29T16:45:16.194Z,20.80
2019-05-29T16:47:45.064Z,20.40
2019-05-29T16:50:15.105Z,20.20
2019-05-29T16:52:43.887Z,20.00
2019-05-29T16:55:13.043Z,20.10
2019-05-29T16:57:41.733Z,19.60
2019-05-29T17:00:13.587Z,19.50
2019-05-29T17:02:42.591Z,19.70
2019-05-29T17:05:11.759Z,19.70
2019-05-29T17:07:40.369Z,19.70
2019-05-29T17:10:09.887Z,19.40
2019-05-29T17:12:42.797Z,19.30
2019-05-29T17:15:20.601Z,19.50
2019-05-29T17:17:49.379Z,19.60
2019-05-29T17:20:21.142Z,19.20
2019-05-29T17:22:49.780Z,19.10
2019-05-29T17:25:18.954Z,19.10
2019-05-29T17:27:47.759Z,19.20
2019-05-29T17:30:19.457Z,19.30
2019-05-29T17:32:49.338Z,19.30
2019-05-29T17:35:18.979Z,18.90
2019-05-29T17:37:47.791Z,19.00
2019-05-29T17:40:17.000Z,19.00
2019-05-29T17:42:45.712Z,18.80
2019-05-29T17:45:19.507Z,18.50
2019-05-29T17:47:46.631Z,18.60
2019-05-29T17:50:19.074Z,18.60
2019-05-29T17:52:45.660Z,18.60
2019-05-29T17:55:18.537Z,18.60
2019-05-29T17:57:45.149Z,18.60
2019-05-29T18:00:18.007Z,18.60
2019-05-29T18:02:52.052Z,18.60
2019-05-29T18:05:18.453Z,18.60
2019-05-29T18:07:47.345Z,18.40
2019-05-29T18:10:19.904Z,18.30
2019-05-29T18:12:46.896Z,18.30
2019-05-29T18:15:17.179Z,18.30
2019-05-29T18:17:57.061Z,18.20
2019-05-29T18:20:25.980Z,18.20
2019-05-29T18:22:54.711Z,18.20
2019-05-29T18:25:23.978Z,18.10
2019-05-29T18:27:52.870Z,18.10
2019-05-29T18:30:22.542Z,17.90
2019-05-29T18:32:51.609Z,17.90
2019-05-29T18:35:20.740Z,17.80
2019-05-29T18:37:49.589Z,17.80
2019-05-29T18:40:20.328Z,17.90
2019-05-29T18:42:49.060Z,17.80
2019-05-29T18:45:21.588Z,18.20
2019-05-29T18:47:49.509Z,18.30
2019-05-29T18:50:19.763Z,18.50
2019-05-29T18:52:48.552Z,18.40
2019-05-29T18:55:17.397Z,18.50
2019-05-29T18:57:46.034Z,18.80
2019-05-29T19:00:16.150Z,19.30
2019-05-29T19:02:44.761Z,19.00
2019-05-29T19:05:13.836Z,18.60
2019-05-29T19:07:42.513Z,18.60
2019-05-29T19:10:12.379Z,18.40
2019-05-29T19:12:40.960Z,18.10
2019-05-29T19:15:10.102Z,17.50
2019-05-29T19:17:38.883Z,17.20
2019-05-29T19:20:08.465Z,16.80
2019-05-29T19:22:37.225Z,16.40
2019-05-29T19:25:09.321Z,16.30
2019-05-29T19:27:41.825Z,16.10
2019-05-29T19:30:12.139Z,15.90
2019-05-29T19:32:40.842Z,15.80
2019-05-29T19:35:09.951Z,15.60
2019-05-29T19:37:38.669Z,15.50
2019-05-29T19:40:07.709Z,15.40
2019-05-29T19:42:36.546Z,15.30
2019-05-29T19:45:07.601Z,15.20
2019-05-29T19:47:36.406Z,15.20
2019-05-29T19:50:11.073Z,15.10
2019-05-29T19:52:39.323Z,15.00
2019-05-29T19:55:08.591Z,14.90
2019-05-29T19:57:52.503Z,14.80
2019-05-29T20:00:09.982Z,14.60
2019-05-29T20:02:42.228Z,14.50
2019-05-29T20:05:14.215Z,14.50
2019-05-29T20:07:42.946Z,14.40
2019-05-29T20:10:11.830Z,14.30
2019-05-29T20:12:40.624Z,14.20
2019-05-29T20:15:09.578Z,14.20
2019-05-29T20:17:39.015Z,14.10
2019-05-29T20:20:08.013Z,13.90
2019-05-29T20:22:37.053Z,13.90
2019-05-29T20:25:07.501Z,14.00
2019-05-29T20:27:36.394Z,14.00
2019-05-29T20:30:08.082Z,13.90
2019-05-29T20:32:36.913Z,13.90
2019-05-29T20:35:06.332Z,13.70
2019-05-29T20:37:36.130Z,13.70
2019-05-29T20:40:11.698Z,13.70
2019-05-29T20:42:40.485Z,13.60
2019-05-29T20:45:09.533Z,13.50
2019-05-29T20:47:40.140Z,13.50
2019-05-29T20:50:10.973Z,13.50
2019-05-29T20:52:39.722Z,13.40
2019-05-29T20:55:08.974Z,13.50
2019-05-29T20:57:38.075Z,13.40
2019-05-29T21:00:11.815Z,13.40
2019-05-29T21:02:40.649Z,13.40
2019-05-29T21:05:14.972Z,13.40
2019-05-29T21:07:44.069Z,13.40
2019-05-29T21:10:14.816Z,13.30
2019-05-29T21:12:47.058Z,13.20
2019-05-29T21:15:14.300Z,13.20
2019-05-29T21:17:44.089Z,13.30
2019-05-29T21:20:13.254Z,13.30
2019-05-29T21:22:42.924Z,13.30
2019-05-29T21:25:17.187Z,13.20
2019-05-29T21:27:47.131Z,13.20
2019-05-29T21:30:14.253Z,13.20
2019-05-29T21:32:44.058Z,13.10
2019-05-29T21:35:13.109Z,13.10
2019-05-29T21:37:42.511Z,13.20
2019-05-29T21:40:12.885Z,13.10
2019-05-29T21:42:42.763Z,13.10
2019-05-29T21:45:11.918Z,13.30
2019-05-29T21:47:40.956Z,13.20
2019-05-29T21:50:10.417Z,13.30
2019-05-29T21:52:39.399Z,13.40
2019-05-29T21:55:09.353Z,13.10
2019-05-29T21:57:39.970Z,13.20
2019-05-29T22:00:11.940Z,13.10
2019-05-29T22:02:42.188Z,13.00
2019-05-29T22:05:11.219Z,13.10
2019-05-29T22:07:40.679Z,13.10
2019-05-29T22:10:10.277Z,13.20
2019-05-29T22:12:39.140Z,13.20
2019-05-29T22:15:08.120Z,13.20
2019-05-29T22:17:36.886Z,13.10
2019-05-29T22:20:09.066Z,13.00
2019-05-29T22:22:44.888Z,12.90
2019-05-29T22:25:14.065Z,13.00
2019-05-29T22:27:42.656Z,13.10
2019-05-29T22:32:49.686Z,13.40
2019-05-29T22:35:18.462Z,13.40
2019-05-29T22:37:47.165Z,13.50
2019-05-29T22:40:17.218Z,13.60
2019-05-29T22:42:45.995Z,13.50
2019-05-29T22:45:15.766Z,13.70
2019-05-29T22:47:44.486Z,13.70
2019-05-29T22:50:13.239Z,13.70
2019-05-29T22:52:42.950Z,13.70
2019-05-29T22:55:11.873Z,13.70
2019-05-29T22:57:40.501Z,13.80
2019-05-29T23:00:10.363Z,13.80
2019-05-29T23:02:39.136Z,13.90
2019-05-29T23:05:08.822Z,13.90
2019-05-29T23:07:37.503Z,13.90
2019-05-29T23:10:09.863Z,13.80
2019-05-29T23:12:38.603Z,13.90
2019-05-29T23:15:08.166Z,13.90
2019-05-29T23:17:36.960Z,14.00
2019-05-29T23:20:09.849Z,13.90
2019-05-29T23:22:38.648Z,13.90
2019-05-29T23:25:08.301Z,14.00
2019-05-29T23:27:37.044Z,14.00
2019-05-29T23:30:07.238Z,14.10
2019-05-29T23:32:35.961Z,14.10
2019-05-29T23:35:06.135Z,14.10
2019-05-29T23:37:34.925Z,14.10
2019-05-29T23:40:07.729Z,14.20
2019-05-29T23:42:36.506Z,14.10
2019-05-29T23:45:08.436Z,14.20
2019-05-29T23:47:37.130Z,14.10
2019-05-29T23:50:07.232Z,14.10
2019-05-29T23:52:35.865Z,14.20
2019-05-29T23:55:06.426Z,14.10
2019-05-29T23:57:35.130Z,14.10
